Accueil
METAR-TAF:

METAR-TAF

Aéroports :

Wiener Neustadt, Autriche

latitude: 47-50-36N, longitude: 016-15-29E, altitude: 272 m

Observation

Le bulletin a été fait il y a 1 heure et 32 minutes, à 17:00 UTC
Vent 4 kt de sud/sud-ouest
Température
Pression
Visibilité 10 km ou plus
Quelques nuages à une hauteur de 5000 ft

METAR: LOAN 261700Z 21004KT 9999 FEW050

Heure: 20:32 (18:32 UTC)

Prévision

Le bulletin a été fait il y a 7 heures et 7 minutes, à 11:25 UTC
Prévision valable du 26 à 12 UTC au 26 à 21 UTC
Vent 7 kt de ouest
Visibilité 10 km ou plus
Nuages épars à une hauteur de 5000 ft
Temporairement
du 26 à 12 UTC au 26 à 18 UTC
faibles averses de pluie

TAF: LOAN 261125Z 2612/2621 28007KT 9999 SCT050 TEMPO 2612/2618 -SHRA

Observations et prévisions météorologiques de plus de 4000 aéroports (messages METAR et TAF).

Les stations disponibles sont représentées par des disques jaunes et rouges sur la carte.

Passer la souris dessus pour voir le nom de la station.

Cliquer dessus pour voir les observations et prévisions météorologiques.

Pour changer de carte: cliquez sur les boutons verts avec une croix noire pour zoomer, sur le bouton vert avec un tiret pour effectuer un zoom arrière, ou sur les flèches vertes pour les cartes adjacentes.


METAR-TAF: